Katy, TX (77449)

8:34 PM CDT on March 24, 2017 (GMT -0500)
Lakes of Bridgewater | | Change Station
Active Advisory: Tornado Watch

Elev 141 ft 29.82 °N, 95.74 °W | Updated 39 seconds ago

Overcast
Overcast
74.8 °F
Feels Like 76 °F
N
7.0
Wind Variable Wind from SSW

Today
High -- | Low -- °F
--% Chance of Precip.
Yesterday
High -- | Low -- °F
Precip. -- in
Pressure 29.92 in
Visibility 7.0 miles
Clouds Mostly Cloudy 2200 ft
Overcast 4800 ft
Heat Index 76 °F
Dew Point 65 °F
Humidity 73%
Rainfall 0.00 in
Snow Depth Not available.
7:21 AM 7:36 PM
Waning Crescent, 11% visible
METAR KTME 250115Z AUTO 19018G27KT 7SM BKN022 OVC048 23/20 A2992 RMK AO2
Pressure 29.92 in
Visibility 7.0 miles
Clouds Mostly Cloudy 2200 ft
Overcast 4800 ft
Heat Index 76 °F
Dew Point 65 °F
Humidity 73%
Rainfall 0.00 in
Snow Depth Not available.
7:21 AM 7:36 PM
Waning Crescent, 11% visible
METAR KTME 250115Z AUTO 19018G27KT 7SM BKN022 OVC048 23/20 A2992 RMK AO2

Get Your Daily Forecast Email!

Thanks for signing up!

Be on the lookout for a verification email in your inbox.

You'll start receiving severe weather alerts in your inbox..

×

10-Day Weather Forecast

Almanac

Astronomy

Mar. 24, 2017 Rise Set
Actual Time
Civil Twilight
Nautical Twilight
Astronomical Twilight
Moon
Length of Visible Light
Length of Day
Tomorrow will be .
, % of the Moon is Illuminated

Today's Extremes

State Highs State Lows

Community

WunderPhotos

Upload Photos

1,962,540 photos uploaded!

WunderBlog® & News

Nearby

Air Quality

  Air Quality AQ Index Pollutant
Not available.

Snow Depth

Station Depth Elevation

Earthquake Activity

City Distance Mag. Time & Date
Minimum magnitude displayed is 2.5.

Earthquake Activity

City Distance Mag. Time & Date
Minimum magnitude displayed is 2.5.

Coastal Water Temperatures

Place Temperature

Stations

Nearby Weather Stations

Station Location Temp. Windchill Dew Point Humidity Wind Precip. Elev Updated Type
                   

Watches & Warnings

Tornado Watch
Issued: 8:24 PM CDT Mar. 24, 2017 – National Weather Service

Tornado Watch 80 remains in effect until 1200 am CDT for the
following locations


TX
. Texas counties included are

Angelina Austin Brazos
Burleson Cherokee Colorado
Fort Bend Grimes Hardin
Harris Houston Jasper
Liberty Madison Montgomery
Nacogdoches Newton Polk
Sabine San Augustine San Jacinto
Trinity Tyler Walker
Waller Washington